To NAV CANADA Home Page Login to a new session Search on AWWS site Feedback and Comments Disclaimer Vers la page française équivalente Tips FAQ What's new on the site To the Forecasts and Observations / NOTAM section To "File a Flight Plan" website Publications and other links Update of the User's profile FIC Telephone Numbers My Weather Data Folder Route Weather Data Regional Weather Data Local Weather Data To the Forecasts and Observations / NOTAM section
Request Generated 04/30/2017 at 05:00:45 UTC . Weather information available at that time is displayed.

METAR/TAF

REGINA/REGINA INTL/SK    

SPECI CYQR 300435Z 25009G15KT 15SM BKN065 07/05 A3010 RMK SC7 SLP212=
METAR CYQR 300400Z 26026G36KT 15SM -SHRA SCT058 BKN110 08/03 A3009
RMK CU3AC4 PRESRR SLP208=
METAR CYQR 300300Z 14005KT 15SM FEW110 SCT210 09/M02 A3006 RMK AC2CI2
SLP201=
METAR CYQR 300200Z 20006KT 15SM FEW070 10/M03 A3007 RMK AC2 SLP205=

TAF AMD CYQR 300407Z 3004/3024 14007KT P6SM BKN060 TEMPO 3004/3006
VRB20G30KT P6SM -SHRA OVC040
FM300800 16010KT P6SM
SCT060 SCT240
FM302100 18010KT P6SM BKN080
RMK NXT FCST BY 300600Z=
Your time UTC time
Weather data provided by Environment Canada and NAV CANADA